sensor_id;sensor_type;location;lat;lon;timestamp;temperature;humidity
32173;DHT22;18679;45.190;5.722;2023-01-28T00:02:06;6.60;54.30
32173;DHT22;18679;45.190;5.722;2023-01-28T00:05:08;6.40;54.40
32173;DHT22;18679;45.190;5.722;2023-01-28T00:08:09;6.40;54.40
32173;DHT22;18679;45.190;5.722;2023-01-28T00:11:12;6.50;54.50
32173;DHT22;18679;45.190;5.722;2023-01-28T00:14:13;6.50;54.50
32173;DHT22;18679;45.190;5.722;2023-01-28T00:17:14;6.50;54.50
32173;DHT22;18679;45.190;5.722;2023-01-28T00:20:15;6.40;54.40
32173;DHT22;18679;45.190;5.722;2023-01-28T00:23:17;6.40;54.70
32173;DHT22;18679;45.190;5.722;2023-01-28T00:26:18;6.40;54.40
32173;DHT22;18679;45.190;5.722;2023-01-28T00:29:19;6.40;54.40
32173;DHT22;18679;45.190;5.722;2023-01-28T00:32:20;6.40;54.50
32173;DHT22;18679;45.190;5.722;2023-01-28T00:35:26;6.40;54.40
32173;DHT22;18679;45.190;5.722;2023-01-28T00:38:41;6.40;54.40
32173;DHT22;18679;45.190;5.722;2023-01-28T00:41:42;6.50;54.50
32173;DHT22;18679;45.190;5.722;2023-01-28T00:44:43;6.50;54.50
32173;DHT22;18679;45.190;5.722;2023-01-28T00:47:44;6.50;54.50
32173;DHT22;18679;45.190;5.722;2023-01-28T00:50:46;6.50;54.50
32173;DHT22;18679;45.190;5.722;2023-01-28T00:53:48;6.50;54.40
32173;DHT22;18679;45.190;5.722;2023-01-28T00:56:50;6.50;54.40
32173;DHT22;18679;45.190;5.722;2023-01-28T00:59:53;6.50;54.30
32173;DHT22;18679;45.190;5.722;2023-01-28T01:02:55;6.50;54.30
32173;DHT22;18679;45.190;5.722;2023-01-28T01:05:56;6.50;54.40
32173;DHT22;18679;45.190;5.722;2023-01-28T01:08:57;6.40;54.30
32173;DHT22;18679;45.190;5.722;2023-01-28T01:11:58;6.40;54.40
32173;DHT22;18679;45.190;5.722;2023-01-28T01:14:59;6.40;54.40
32173;DHT22;18679;45.190;5.722;2023-01-28T01:18:00;6.40;54.40
32173;DHT22;18679;45.190;5.722;2023-01-28T01:21:02;6.30;54.30
32173;DHT22;18679;45.190;5.722;2023-01-28T01:24:07;6.30;54.20
32173;DHT22;18679;45.190;5.722;2023-01-28T01:27:08;6.30;54.20
32173;DHT22;18679;45.190;5.722;2023-01-28T01:30:09;6.40;54.20
32173;DHT22;18679;45.190;5.722;2023-01-28T01:33:10;6.30;54.10
32173;DHT22;18679;45.190;5.722;2023-01-28T01:36:12;6.30;54.10
32173;DHT22;18679;45.190;5.722;2023-01-28T01:39:13;6.30;54.20
32173;DHT22;18679;45.190;5.722;2023-01-28T01:42:15;6.30;54.20
32173;DHT22;18679;45.190;5.722;2023-01-28T01:45:16;6.30;54.30
32173;DHT22;18679;45.190;5.722;2023-01-28T01:52:05;6.30;54.10
32173;DHT22;18679;45.190;5.722;2023-01-28T01:55:42;6.30;54.20
32173;DHT22;18679;45.190;5.722;2023-01-28T01:58:47;6.30;54.30
32173;DHT22;18679;45.190;5.722;2023-01-28T02:01:49;6.30;54.20
32173;DHT22;18679;45.190;5.722;2023-01-28T02:04:50;6.40;54.10
32173;DHT22;18679;45.190;5.722;2023-01-28T02:07:54;6.40;54.10
32173;DHT22;18679;45.190;5.722;2023-01-28T02:11:18;6.40;54.20
32173;DHT22;18679;45.190;5.722;2023-01-28T02:14:21;6.40;54.10
32173;DHT22;18679;45.190;5.722;2023-01-28T02:17:23;6.40;54.20
32173;DHT22;18679;45.190;5.722;2023-01-28T02:31:26;6.40;54.30
32173;DHT22;18679;45.190;5.722;2023-01-28T02:34:42;6.40;54.30
32173;DHT22;18679;45.190;5.722;2023-01-28T02:37:48;6.40;54.30
32173;DHT22;18679;45.190;5.722;2023-01-28T02:40:56;6.30;54.20
32173;DHT22;18679;45.190;5.722;2023-01-28T02:44:09;6.30;54.30
32173;DHT22;18679;45.190;5.722;2023-01-28T02:47:12;6.30;54.20
32173;DHT22;18679;45.190;5.722;2023-01-28T02:50:49;6.30;54.30
32173;DHT22;18679;45.190;5.722;2023-01-28T02:54:06;6.00;54.30
32173;DHT22;18679;45.190;5.722;2023-01-28T02:57:27;6.30;54.40
32173;DHT22;18679;45.190;5.722;2023-01-28T03:00:49;6.30;54.50
32173;DHT22;18679;45.190;5.722;2023-01-28T03:03:59;6.20;54.50
32173;DHT22;18679;45.190;5.722;2023-01-28T03:07:05;6.20;54.60
32173;DHT22;18679;45.190;5.722;2023-01-28T03:10:11;6.10;54.60
32173;DHT22;18679;45.190;5.722;2023-01-28T03:13:13;6.10;54.60
32173;DHT22;18679;45.190;5.722;2023-01-28T03:16:34;6.10;55.10
32173;DHT22;18679;45.190;5.722;2023-01-28T03:19:53;6.10;54.60
32173;DHT22;18679;45.190;5.722;2023-01-28T03:23:17;6.10;54.60
32173;DHT22;18679;45.190;5.722;2023-01-28T03:27:00;6.00;54.60
32173;DHT22;18679;45.190;5.722;2023-01-28T03:30:42;6.00;54.70
32173;DHT22;18679;45.190;5.722;2023-01-28T03:34:22;6.00;54.70
32173;DHT22;18679;45.190;5.722;2023-01-28T03:37:45;6.00;54.80
32173;DHT22;18679;45.190;5.722;2023-01-28T03:41:03;6.00;54.70
32173;DHT22;18679;45.190;5.722;2023-01-28T03:44:05;6.00;54.70
32173;DHT22;18679;45.190;5.722;2023-01-28T03:47:27;6.00;54.70
32173;DHT22;18679;45.190;5.722;2023-01-28T03:50:28;6.00;54.80
32173;DHT22;18679;45.190;5.722;2023-01-28T03:53:34;5.90;54.80
32173;DHT22;18679;45.190;5.722;2023-01-28T03:56:35;5.90;54.80
32173;DHT22;18679;45.190;5.722;2023-01-28T03:59:37;5.90;54.90
32173;DHT22;18679;45.190;5.722;2023-01-28T04:02:38;5.90;54.90
32173;DHT22;18679;45.190;5.722;2023-01-28T04:05:56;5.90;55.00
32173;DHT22;18679;45.190;5.722;2023-01-28T04:09:00;5.90;55.10
32173;DHT22;18679;45.190;5.722;2023-01-28T04:12:20;5.90;55.00
32173;DHT22;18679;45.190;5.722;2023-01-28T04:15:25;5.90;55.10
32173;DHT22;18679;45.190;5.722;2023-01-28T04:18:28;5.90;55.10
32173;DHT22;18679;45.190;5.722;2023-01-28T04:21:31;5.90;55.10
32173;DHT22;18679;45.190;5.722;2023-01-28T04:24:34;5.80;55.00
32173;DHT22;18679;45.190;5.722;2023-01-28T04:27:35;5.80;55.00
32173;DHT22;18679;45.190;5.722;2023-01-28T04:30:46;5.80;55.10
32173;DHT22;18679;45.190;5.722;2023-01-28T04:34:05;5.80;55.20
32173;DHT22;18679;45.190;5.722;2023-01-28T04:37:25;5.80;55.20
32173;DHT22;18679;45.190;5.722;2023-01-28T04:44:53;5.80;55.30
32173;DHT22;18679;45.190;5.722;2023-01-28T04:48:13;5.90;55.10
32173;DHT22;18679;45.190;5.722;2023-01-28T04:51:29;5.90;55.10
32173;DHT22;18679;45.190;5.722;2023-01-28T04:54:50;5.90;55.10
32173;DHT22;18679;45.190;5.722;2023-01-28T04:57:51;5.80;55.00
32173;DHT22;18679;45.190;5.722;2023-01-28T05:01:13;5.80;55.00
32173;DHT22;18679;45.190;5.722;2023-01-28T05:04:15;5.80;55.20
32173;DHT22;18679;45.190;5.722;2023-01-28T05:07:17;5.80;55.10
32173;DHT22;18679;45.190;5.722;2023-01-28T05:10:19;5.80;55.00
32173;DHT22;18679;45.190;5.722;2023-01-28T05:13:24;5.80;55.00
32173;DHT22;18679;45.190;5.722;2023-01-28T05:16:25;5.90;55.10
32173;DHT22;18679;45.190;5.722;2023-01-28T05:19:26;5.90;54.90
32173;DHT22;18679;45.190;5.722;2023-01-28T05:22:31;5.90;54.90
32173;DHT22;18679;45.190;5.722;2023-01-28T05:25:52;5.90;54.80
32173;DHT22;18679;45.190;5.722;2023-01-28T05:28:53;5.90;54.70
32173;DHT22;18679;45.190;5.722;2023-01-28T05:31:54;5.80;54.80
32173;DHT22;18679;45.190;5.722;2023-01-28T05:34:56;5.80;54.90
32173;DHT22;18679;45.190;5.722;2023-01-28T05:41:14;5.90;55.10
32173;DHT22;18679;45.190;5.722;2023-01-28T05:44:17;5.90;55.00
32173;DHT22;18679;45.190;5.722;2023-01-28T05:47:41;5.80;54.90
32173;DHT22;18679;45.190;5.722;2023-01-28T05:51:03;5.90;55.50
32173;DHT22;18679;45.190;5.722;2023-01-28T05:54:18;5.90;55.00
32173;DHT22;18679;45.190;5.722;2023-01-28T05:57:23;5.90;54.80
32173;DHT22;18679;45.190;5.722;2023-01-28T06:00:30;5.90;54.80
32173;DHT22;18679;45.190;5.722;2023-01-28T06:03:31;5.90;55.00
32173;DHT22;18679;45.190;5.722;2023-01-28T06:06:32;6.00;55.00
32173;DHT22;18679;45.190;5.722;2023-01-28T06:09:34;6.00;55.00
32173;DHT22;18679;45.190;5.722;2023-01-28T06:12:35;6.00;54.90
32173;DHT22;18679;45.190;5.722;2023-01-28T06:15:56;6.00;55.00
32173;DHT22;18679;45.190;5.722;2023-01-28T06:19:00;6.00;55.50
32173;DHT22;18679;45.190;5.722;2023-01-28T06:22:01;6.00;54.80
32173;DHT22;18679;45.190;5.722;2023-01-28T06:25:03;6.00;54.80
32173;DHT22;18679;45.190;5.722;2023-01-28T06:28:06;6.00;54.90
32173;DHT22;18679;45.190;5.722;2023-01-28T06:31:07;6.00;54.90
32173;DHT22;18679;45.190;5.722;2023-01-28T06:34:09;6.00;55.00
32173;DHT22;18679;45.190;5.722;2023-01-28T06:37:13;6.00;55.00
32173;DHT22;18679;45.190;5.722;2023-01-28T06:40:14;6.00;55.00
32173;DHT22;18679;45.190;5.722;2023-01-28T06:43:15;6.00;55.00
32173;DHT22;18679;45.190;5.722;2023-01-28T06:46:22;6.00;55.10
32173;DHT22;18679;45.190;5.722;2023-01-28T06:53:53;5.80;55.20
32173;DHT22;18679;45.190;5.722;2023-01-28T06:56:55;5.90;55.40
32173;DHT22;18679;45.190;5.722;2023-01-28T06:59:56;5.90;55.30
32173;DHT22;18679;45.190;5.722;2023-01-28T07:02:57;5.90;55.40
32173;DHT22;18679;45.190;5.722;2023-01-28T07:05:58;6.00;56.00
32173;DHT22;18679;45.190;5.722;2023-01-28T07:08:59;5.90;55.40
32173;DHT22;18679;45.190;5.722;2023-01-28T07:12:00;5.90;55.60
32173;DHT22;18679;45.190;5.722;2023-01-28T07:15:05;5.90;55.70
32173;DHT22;18679;45.190;5.722;2023-01-28T07:18:06;5.90;55.70
32173;DHT22;18679;45.190;5.722;2023-01-28T07:21:07;5.90;55.60
32173;DHT22;18679;45.190;5.722;2023-01-28T07:24:08;5.90;55.60
32173;DHT22;18679;45.190;5.722;2023-01-28T07:27:09;6.00;55.60
32173;DHT22;18679;45.190;5.722;2023-01-28T07:30:10;6.00;55.50
32173;DHT22;18679;45.190;5.722;2023-01-28T07:33:11;5.90;55.50
32173;DHT22;18679;45.190;5.722;2023-01-28T07:36:12;5.90;55.50
32173;DHT22;18679;45.190;5.722;2023-01-28T07:39:13;5.90;55.50
32173;DHT22;18679;45.190;5.722;2023-01-28T07:42:14;5.90;55.60
32173;DHT22;18679;45.190;5.722;2023-01-28T07:49:26;5.90;55.50
32173;DHT22;18679;45.190;5.722;2023-01-28T07:52:28;5.90;55.70
32173;DHT22;18679;45.190;5.722;2023-01-28T07:55:29;5.90;55.80
32173;DHT22;18679;45.190;5.722;2023-01-28T07:58:30;5.80;55.90
32173;DHT22;18679;45.190;5.722;2023-01-28T08:01:32;5.80;56.00
32173;DHT22;18679;45.190;5.722;2023-01-28T08:04:33;5.80;55.90
32173;DHT22;18679;45.190;5.722;2023-01-28T08:07:34;5.90;55.90
32173;DHT22;18679;45.190;5.722;2023-01-28T08:10:35;5.90;55.90
32173;DHT22;18679;45.190;5.722;2023-01-28T08:13:36;5.90;56.50
32173;DHT22;18679;45.190;5.722;2023-01-28T08:16:37;5.90;55.90
32173;DHT22;18679;45.190;5.722;2023-01-28T08:19:41;5.90;56.00
32173;DHT22;18679;45.190;5.722;2023-01-28T08:22:42;5.90;56.10
32173;DHT22;18679;45.190;5.722;2023-01-28T08:25:44;5.90;56.20
32173;DHT22;18679;45.190;5.722;2023-01-28T08:28:45;5.90;56.30
32173;DHT22;18679;45.190;5.722;2023-01-28T08:31:47;6.00;56.20
32173;DHT22;18679;45.190;5.722;2023-01-28T08:34:48;6.00;56.10
32173;DHT22;18679;45.190;5.722;2023-01-28T08:37:49;6.10;56.20
32173;DHT22;18679;45.190;5.722;2023-01-28T08:40:50;6.10;56.10
32173;DHT22;18679;45.190;5.722;2023-01-28T08:43:55;6.20;56.10
32173;DHT22;18679;45.190;5.722;2023-01-28T08:46:59;6.30;55.90
32173;DHT22;18679;45.190;5.722;2023-01-28T08:50:03;6.30;55.90
32173;DHT22;18679;45.190;5.722;2023-01-28T08:53:08;6.30;55.90
32173;DHT22;18679;45.190;5.722;2023-01-28T08:56:09;6.40;56.00
32173;DHT22;18679;45.190;5.722;2023-01-28T08:59:10;6.50;55.80
32173;DHT22;18679;45.190;5.722;2023-01-28T09:02:13;6.60;55.70
32173;DHT22;18679;45.190;5.722;2023-01-28T09:05:14;6.60;55.50
32173;DHT22;18679;45.190;5.722;2023-01-28T09:08:16;6.50;55.50
32173;DHT22;18679;45.190;5.722;2023-01-28T09:11:17;6.50;55.60
32173;DHT22;18679;45.190;5.722;2023-01-28T09:14:18;6.50;56.20
32173;DHT22;18679;45.190;5.722;2023-01-28T09:17:20;6.40;55.70
32173;DHT22;18679;45.190;5.722;2023-01-28T09:20:21;6.40;55.80
32173;DHT22;18679;45.190;5.722;2023-01-28T09:23:22;6.40;55.90
32173;DHT22;18679;45.190;5.722;2023-01-28T09:26:23;6.30;56.00
32173;DHT22;18679;45.190;5.722;2023-01-28T09:29:25;6.40;56.10
32173;DHT22;18679;45.190;5.722;2023-01-28T09:32:27;6.40;56.00
32173;DHT22;18679;45.190;5.722;2023-01-28T09:35:28;6.40;56.00
32173;DHT22;18679;45.190;5.722;2023-01-28T09:38:30;6.50;55.90
32173;DHT22;18679;45.190;5.722;2023-01-28T09:41:56;6.50;56.00
32173;DHT22;18679;45.190;5.722;2023-01-28T09:45:11;6.50;56.00
32173;DHT22;18679;45.190;5.722;2023-01-28T09:48:16;6.50;55.80
32173;DHT22;18679;45.190;5.722;2023-01-28T09:51:40;6.50;55.80
32173;DHT22;18679;45.190;5.722;2023-01-28T09:58:00;6.50;55.90
32173;DHT22;18679;45.190;5.722;2023-01-28T10:01:33;6.50;55.80
32173;DHT22;18679;45.190;5.722;2023-01-28T10:05:17;6.40;55.90
32173;DHT22;18679;45.190;5.722;2023-01-28T10:18:43;6.40;56.00
32173;DHT22;18679;45.190;5.722;2023-01-28T10:21:51;6.40;55.90
32173;DHT22;18679;45.190;5.722;2023-01-28T10:24:57;6.40;55.80
32173;DHT22;18679;45.190;5.722;2023-01-28T10:28:17;6.40;55.80
32173;DHT22;18679;45.190;5.722;2023-01-28T10:31:21;6.40;55.80
32173;DHT22;18679;45.190;5.722;2023-01-28T10:34:22;6.40;55.80
32173;DHT22;18679;45.190;5.722;2023-01-28T10:37:23;6.40;55.90
32173;DHT22;18679;45.190;5.722;2023-01-28T10:40:24;6.40;55.90
32173;DHT22;18679;45.190;5.722;2023-01-28T10:43:30;6.30;55.80
32173;DHT22;18679;45.190;5.722;2023-01-28T10:46:33;6.30;55.80
32173;DHT22;18679;45.190;5.722;2023-01-28T10:49:41;6.40;55.90
32173;DHT22;18679;45.190;5.722;2023-01-28T10:52:54;6.40;55.80
32173;DHT22;18679;45.190;5.722;2023-01-28T10:55:57;6.40;55.80
32173;DHT22;18679;45.190;5.722;2023-01-28T10:59:05;6.40;55.80
32173;DHT22;18679;45.190;5.722;2023-01-28T11:05:26;6.50;55.60
32173;DHT22;18679;45.190;5.722;2023-01-28T11:08:28;6.50;55.40
32173;DHT22;18679;45.190;5.722;2023-01-28T11:11:30;6.60;55.40
32173;DHT22;18679;45.190;5.722;2023-01-28T11:14:30;6.60;55.50
32173;DHT22;18679;45.190;5.722;2023-01-28T11:17:34;6.60;55.40
32173;DHT22;18679;45.190;5.722;2023-01-28T11:20:40;6.60;55.40
32173;DHT22;18679;45.190;5.722;2023-01-28T11:26:54;6.60;55.10
32173;DHT22;18679;45.190;5.722;2023-01-28T11:29:57;6.60;55.30
32173;DHT22;18679;45.190;5.722;2023-01-28T11:33:14;6.60;55.30
32173;DHT22;18679;45.190;5.722;2023-01-28T11:36:18;6.60;55.30
32173;DHT22;18679;45.190;5.722;2023-01-28T11:39:24;6.60;55.30
32173;DHT22;18679;45.190;5.722;2023-01-28T11:42:28;6.60;55.10
32173;DHT22;18679;45.190;5.722;2023-01-28T11:45:59;6.60;55.00
32173;DHT22;18679;45.190;5.722;2023-01-28T12:06:08;6.60;54.70
32173;DHT22;18679;45.190;5.722;2023-01-28T12:16:11;6.70;54.80
32173;DHT22;18679;45.190;5.722;2023-01-28T12:26:10;6.80;54.40
32173;DHT22;18679;45.190;5.722;2023-01-28T12:36:26;6.80;54.30
32173;DHT22;18679;45.190;5.722;2023-01-28T12:45:39;6.80;54.30
32173;DHT22;18679;45.190;5.722;2023-01-28T12:48:45;6.90;54.30
32173;DHT22;18679;45.190;5.722;2023-01-28T12:52:04;6.90;54.20
32173;DHT22;18679;45.190;5.722;2023-01-28T12:55:19;6.80;54.00
32173;DHT22;18679;45.190;5.722;2023-01-28T12:58:38;6.80;53.90
32173;DHT22;18679;45.190;5.722;2023-01-28T13:01:54;6.80;54.10
32173;DHT22;18679;45.190;5.722;2023-01-28T13:05:19;6.80;54.10
32173;DHT22;18679;45.190;5.722;2023-01-28T13:08:27;6.80;54.10
32173;DHT22;18679;45.190;5.722;2023-01-28T13:11:33;6.90;54.10
32173;DHT22;18679;45.190;5.722;2023-01-28T13:14:35;6.90;54.00
32173;DHT22;18679;45.190;5.722;2023-01-28T13:17:36;6.90;53.90
32173;DHT22;18679;45.190;5.722;2023-01-28T13:20:49;6.90;53.80
32173;DHT22;18679;45.190;5.722;2023-01-28T13:24:16;7.00;53.80
32173;DHT22;18679;45.190;5.722;2023-01-28T13:27:24;7.00;53.70
32173;DHT22;18679;45.190;5.722;2023-01-28T13:36:53;7.10;53.20
32173;DHT22;18679;45.190;5.722;2023-01-28T13:40:25;7.10;53.20
32173;DHT22;18679;45.190;5.722;2023-01-28T13:46:37;7.10;53.30
32173;DHT22;18679;45.190;5.722;2023-01-28T13:50:11;7.10;53.20
32173;DHT22;18679;45.190;5.722;2023-01-28T14:00:04;7.20;52.70
32173;DHT22;18679;45.190;5.722;2023-01-28T14:07:24;7.20;52.80
32173;DHT22;18679;45.190;5.722;2023-01-28T14:10:37;7.10;52.80
32173;DHT22;18679;45.190;5.722;2023-01-28T14:17:43;7.10;52.90
32173;DHT22;18679;45.190;5.722;2023-01-28T14:20:46;7.20;52.80
32173;DHT22;18679;45.190;5.722;2023-01-28T14:23:52;7.20;53.30
32173;DHT22;18679;45.190;5.722;2023-01-28T14:33:53;7.20;52.70
32173;DHT22;18679;45.190;5.722;2023-01-28T14:37:18;7.10;52.60
32173;DHT22;18679;45.190;5.722;2023-01-28T14:40:19;7.20;52.80
32173;DHT22;18679;45.190;5.722;2023-01-28T14:43:26;7.20;52.80
32173;DHT22;18679;45.190;5.722;2023-01-28T14:46:39;7.20;52.70
32173;DHT22;18679;45.190;5.722;2023-01-28T14:57:00;7.20;52.80
32173;DHT22;18679;45.190;5.722;2023-01-28T14:59:54;7.20;52.70
32173;DHT22;18679;45.190;5.722;2023-01-28T15:02:57;7.20;52.80
32173;DHT22;18679;45.190;5.722;2023-01-28T15:06:11;7.20;52.70
32173;DHT22;18679;45.190;5.722;2023-01-28T15:09:13;7.20;52.90
32173;DHT22;18679;45.190;5.722;2023-01-28T15:12:15;7.20;52.80
32173;DHT22;18679;45.190;5.722;2023-01-28T15:15:28;7.20;52.90
32173;DHT22;18679;45.190;5.722;2023-01-28T15:18:34;7.10;52.90
32173;DHT22;18679;45.190;5.722;2023-01-28T15:21:36;7.10;53.50
32173;DHT22;18679;45.190;5.722;2023-01-28T15:24:41;7.10;52.90
32173;DHT22;18679;45.190;5.722;2023-01-28T15:27:45;7.10;52.90
32173;DHT22;18679;45.190;5.722;2023-01-28T15:30:47;7.10;53.00
32173;DHT22;18679;45.190;5.722;2023-01-28T15:34:11;7.10;53.10
32173;DHT22;18679;45.190;5.722;2023-01-28T15:37:13;7.00;53.10
32173;DHT22;18679;45.190;5.722;2023-01-28T15:40:18;7.00;53.10
32173;DHT22;18679;45.190;5.722;2023-01-28T15:43:31;6.90;53.10
32173;DHT22;18679;45.190;5.722;2023-01-28T15:46:34;6.90;53.20
32173;DHT22;18679;45.190;5.722;2023-01-28T15:49:42;6.90;53.20
32173;DHT22;18679;45.190;5.722;2023-01-28T15:52:44;6.90;53.20
32173;DHT22;18679;45.190;5.722;2023-01-28T15:55:45;6.90;53.30
32173;DHT22;18679;45.190;5.722;2023-01-28T15:58:46;6.80;53.30
32173;DHT22;18679;45.190;5.722;2023-01-28T16:01:47;6.90;53.30
32173;DHT22;18679;45.190;5.722;2023-01-28T16:04:56;6.90;53.20
32173;DHT22;18679;45.190;5.722;2023-01-28T16:11:29;6.90;53.10
32173;DHT22;18679;45.190;5.722;2023-01-28T16:14:44;7.00;53.20
32173;DHT22;18679;45.190;5.722;2023-01-28T16:17:48;6.90;53.20
32173;DHT22;18679;45.190;5.722;2023-01-28T16:20:52;6.90;53.20
32173;DHT22;18679;45.190;5.722;2023-01-28T16:24:05;7.60;53.50
32173;DHT22;18679;45.190;5.722;2023-01-28T16:27:22;6.90;53.20
32173;DHT22;18679;45.190;5.722;2023-01-28T16:30:24;6.90;53.10
32173;DHT22;18679;45.190;5.722;2023-01-28T16:33:25;6.90;53.10
32173;DHT22;18679;45.190;5.722;2023-01-28T16:36:26;6.90;53.10
32173;DHT22;18679;45.190;5.722;2023-01-28T16:39:27;6.90;53.10
32173;DHT22;18679;45.190;5.722;2023-01-28T16:42:30;6.90;53.10
32173;DHT22;18679;45.190;5.722;2023-01-28T16:45:31;6.90;53.10
32173;DHT22;18679;45.190;5.722;2023-01-28T16:48:32;6.90;53.10
32173;DHT22;18679;45.190;5.722;2023-01-28T16:51:34;6.80;53.10
32173;DHT22;18679;45.190;5.722;2023-01-28T16:54:35;6.70;53.10
32173;DHT22;18679;45.190;5.722;2023-01-28T16:57:36;6.70;53.20
32173;DHT22;18679;45.190;5.722;2023-01-28T17:00:37;6.70;53.30
32173;DHT22;18679;45.190;5.722;2023-01-28T17:03:39;6.80;53.30
32173;DHT22;18679;45.190;5.722;2023-01-28T17:06:41;6.80;53.20
32173;DHT22;18679;45.190;5.722;2023-01-28T17:09:43;6.80;53.20
32173;DHT22;18679;45.190;5.722;2023-01-28T17:12:47;6.80;53.10
32173;DHT22;18679;45.190;5.722;2023-01-28T17:15:48;6.90;53.20
32173;DHT22;18679;45.190;5.722;2023-01-28T17:18:52;6.90;53.10
32173;DHT22;18679;45.190;5.722;2023-01-28T17:21:53;6.90;53.00
32173;DHT22;18679;45.190;5.722;2023-01-28T17:24:54;7.00;53.00
32173;DHT22;18679;45.190;5.722;2023-01-28T17:31:08;6.90;52.90
32173;DHT22;18679;45.190;5.722;2023-01-28T17:34:11;6.90;52.90
32173;DHT22;18679;45.190;5.722;2023-01-28T17:37:12;6.90;52.90
32173;DHT22;18679;45.190;5.722;2023-01-28T17:40:13;6.90;52.90
32173;DHT22;18679;45.190;5.722;2023-01-28T17:43:14;6.80;52.90
32173;DHT22;18679;45.190;5.722;2023-01-28T17:46:16;6.80;53.00
32173;DHT22;18679;45.190;5.722;2023-01-28T17:49:18;6.80;53.00
32173;DHT22;18679;45.190;5.722;2023-01-28T17:52:19;6.90;53.10
32173;DHT22;18679;45.190;5.722;2023-01-28T17:55:21;6.90;53.00
32173;DHT22;18679;45.190;5.722;2023-01-28T17:58:22;7.00;53.00
32173;DHT22;18679;45.190;5.722;2023-01-28T18:01:24;7.00;52.90
32173;DHT22;18679;45.190;5.722;2023-01-28T18:04:25;7.10;52.80
32173;DHT22;18679;45.190;5.722;2023-01-28T18:07:26;7.10;52.80
32173;DHT22;18679;45.190;5.722;2023-01-28T18:10:27;7.20;52.80
32173;DHT22;18679;45.190;5.722;2023-01-28T18:13:29;7.20;52.80
32173;DHT22;18679;45.190;5.722;2023-01-28T18:16:30;7.20;52.70
32173;DHT22;18679;45.190;5.722;2023-01-28T18:19:30;7.20;52.60
32173;DHT22;18679;45.190;5.722;2023-01-28T18:22:32;7.20;52.60
32173;DHT22;18679;45.190;5.722;2023-01-28T18:25:34;7.30;52.60
32173;DHT22;18679;45.190;5.722;2023-01-28T18:28:35;7.30;52.50
32173;DHT22;18679;45.190;5.722;2023-01-28T18:31:36;7.30;52.50
32173;DHT22;18679;45.190;5.722;2023-01-28T18:34:37;7.30;52.40
32173;DHT22;18679;45.190;5.722;2023-01-28T18:37:38;7.30;52.30
32173;DHT22;18679;45.190;5.722;2023-01-28T18:40:43;7.40;52.40
32173;DHT22;18679;45.190;5.722;2023-01-28T18:43:45;7.40;52.30
32173;DHT22;18679;45.190;5.722;2023-01-28T18:46:46;7.40;52.30
32173;DHT22;18679;45.190;5.722;2023-01-28T18:49:46;7.50;52.20
32173;DHT22;18679;45.190;5.722;2023-01-28T18:52:47;7.40;52.20
32173;DHT22;18679;45.190;5.722;2023-01-28T18:55:48;7.50;52.20
32173;DHT22;18679;45.190;5.722;2023-01-28T18:58:56;7.50;52.00
32173;DHT22;18679;45.190;5.722;2023-01-28T19:01:58;7.50;51.90
32173;DHT22;18679;45.190;5.722;2023-01-28T19:04:58;7.50;52.00
32173;DHT22;18679;45.190;5.722;2023-01-28T19:07:59;7.40;51.90
32173;DHT22;18679;45.190;5.722;2023-01-28T19:11:01;7.40;52.00
32173;DHT22;18679;45.190;5.722;2023-01-28T19:14:01;7.40;52.00
32173;DHT22;18679;45.190;5.722;2023-01-28T19:17:02;7.40;52.00
32173;DHT22;18679;45.190;5.722;2023-01-28T19:20:03;7.50;52.00
32173;DHT22;18679;45.190;5.722;2023-01-28T19:23:05;7.50;52.00
32173;DHT22;18679;45.190;5.722;2023-01-28T19:26:07;7.50;52.00
32173;DHT22;18679;45.190;5.722;2023-01-28T19:29:09;7.50;52.00
32173;DHT22;18679;45.190;5.722;2023-01-28T19:32:10;7.50;52.00
32173;DHT22;18679;45.190;5.722;2023-01-28T19:35:11;7.40;52.10
32173;DHT22;18679;45.190;5.722;2023-01-28T19:38:12;7.40;52.30
32173;DHT22;18679;45.190;5.722;2023-01-28T19:41:13;7.40;52.20
32173;DHT22;18679;45.190;5.722;2023-01-28T19:44:15;7.30;52.30
32173;DHT22;18679;45.190;5.722;2023-01-28T19:47:16;7.30;52.40
32173;DHT22;18679;45.190;5.722;2023-01-28T19:50:18;7.30;52.50
32173;DHT22;18679;45.190;5.722;2023-01-28T19:53:20;7.30;52.60
32173;DHT22;18679;45.190;5.722;2023-01-28T19:56:23;7.20;52.60
32173;DHT22;18679;45.190;5.722;2023-01-28T19:59:25;7.20;52.70
32173;DHT22;18679;45.190;5.722;2023-01-28T20:02:26;7.20;52.80
32173;DHT22;18679;45.190;5.722;2023-01-28T20:05:27;7.10;52.80
32173;DHT22;18679;45.190;5.722;2023-01-28T20:08:28;7.10;52.90
32173;DHT22;18679;45.190;5.722;2023-01-28T20:11:29;7.10;52.90
32173;DHT22;18679;45.190;5.722;2023-01-28T20:14:30;7.10;53.00
32173;DHT22;18679;45.190;5.722;2023-01-28T20:17:31;7.10;53.10
32173;DHT22;18679;45.190;5.722;2023-01-28T20:20:32;7.10;53.00
32173;DHT22;18679;45.190;5.722;2023-01-28T20:23:33;7.10;53.00
32173;DHT22;18679;45.190;5.722;2023-01-28T20:26:36;7.10;52.90
32173;DHT22;18679;45.190;5.722;2023-01-28T20:29:37;7.20;53.00
32173;DHT22;18679;45.190;5.722;2023-01-28T20:32:38;7.20;53.00
32173;DHT22;18679;45.190;5.722;2023-01-28T20:35:39;7.20;53.00
32173;DHT22;18679;45.190;5.722;2023-01-28T20:38:44;7.10;53.00
32173;DHT22;18679;45.190;5.722;2023-01-28T20:41:45;7.10;53.00
32173;DHT22;18679;45.190;5.722;2023-01-28T20:44:46;7.20;53.00
32173;DHT22;18679;45.190;5.722;2023-01-28T20:47:47;7.10;53.10
32173;DHT22;18679;45.190;5.722;2023-01-28T20:50:48;7.10;53.00
32173;DHT22;18679;45.190;5.722;2023-01-28T20:53:50;7.10;53.10
32173;DHT22;18679;45.190;5.722;2023-01-28T20:56:53;7.10;53.10
32173;DHT22;18679;45.190;5.722;2023-01-28T20:59:54;7.10;53.10
32173;DHT22;18679;45.190;5.722;2023-01-28T21:02:55;7.20;53.10
32173;DHT22;18679;45.190;5.722;2023-01-28T21:05:56;7.20;53.00
32173;DHT22;18679;45.190;5.722;2023-01-28T21:08:57;7.20;53.00
32173;DHT22;18679;45.190;5.722;2023-01-28T21:11:58;7.30;52.90
32173;DHT22;18679;45.190;5.722;2023-01-28T21:14:59;7.30;52.90
32173;DHT22;18679;45.190;5.722;2023-01-28T21:18:01;7.30;52.90
32173;DHT22;18679;45.190;5.722;2023-01-28T21:21:08;7.30;52.80
32173;DHT22;18679;45.190;5.722;2023-01-28T21:24:10;7.30;52.80
32173;DHT22;18679;45.190;5.722;2023-01-28T21:27:11;7.20;52.80
32173;DHT22;18679;45.190;5.722;2023-01-28T21:30:12;7.30;52.80
32173;DHT22;18679;45.190;5.722;2023-01-28T21:33:14;7.30;52.80
32173;DHT22;18679;45.190;5.722;2023-01-28T21:36:15;7.30;52.80
32173;DHT22;18679;45.190;5.722;2023-01-28T21:39:16;7.30;52.80
32173;DHT22;18679;45.190;5.722;2023-01-28T21:42:17;7.20;52.80
32173;DHT22;18679;45.190;5.722;2023-01-28T21:45:19;7.30;52.80
32173;DHT22;18679;45.190;5.722;2023-01-28T21:48:20;7.20;52.80
32173;DHT22;18679;45.190;5.722;2023-01-28T21:51:21;7.20;52.80
32173;DHT22;18679;45.190;5.722;2023-01-28T21:54:45;7.20;52.80
32173;DHT22;18679;45.190;5.722;2023-01-28T21:57:46;7.20;52.90
32173;DHT22;18679;45.190;5.722;2023-01-28T22:00:47;7.20;52.90
32173;DHT22;18679;45.190;5.722;2023-01-28T22:03:48;7.20;52.90
32173;DHT22;18679;45.190;5.722;2023-01-28T22:06:52;7.20;52.90
32173;DHT22;18679;45.190;5.722;2023-01-28T22:09:53;7.20;52.80